Time;durP1;ratioP1;P1;durP2;ratioP2;P2;SDS_P1;SDS_P2;PMS_P1;PMS_P2;Temp;Humidity;BMP_temperature;BMP_pressure;BME280_temperature;BME280_humidity;BME280_pressure;Samples;Min_cycle;Max_cycle;Signal;HPM_P1;HPM_P2
2022/01/15 00:00:24;;;;;;;101.90;19.90;;;;;;;2.92;100.00;99345.06;5066888;28;20629;-75
2022/01/15 00:02:51;;;;;;;74.90;18.90;;;;;;;2.77;100.00;99340.75;5065451;28;20645;-74
2022/01/15 00:05:18;;;;;;;117.87;22.30;;;;;;;3.23;100.00;99343.13;5065556;28;20586;-74
2022/01/15 00:07:47;;;;;;;100.37;21.23;;;;;;;3.48;100.00;99338.38;5066537;28;20606;-73
2022/01/15 00:10:14;;;;;;;86.93;18.13;;;;;;;3.59;100.00;99331.84;5058122;28;20858;-73
2022/01/15 00:12:43;;;;;;;80.10;18.40;;;;;;;3.70;100.00;99331.34;5066452;28;20637;-74
2022/01/15 00:15:16;;;;;;;96.53;20.67;;;;;;;3.43;100.00;99339.94;5065129;28;20626;-74
2022/01/15 00:17:49;;;;;;;77.33;21.30;;;;;;;3.47;100.00;99333.28;5066262;28;20598;-73
2022/01/15 00:20:20;;;;;;;64.60;17.80;;;;;;;3.52;100.00;99341.47;5044971;28;20639;-73
2022/01/15 00:22:48;;;;;;;59.37;17.30;;;;;;;3.21;100.00;99342.50;5063607;28;20616;-74
2022/01/15 00:25:15;;;;;;;86.27;18.40;;;;;;;3.44;100.00;99326.53;5058141;28;20678;-73
2022/01/15 00:27:44;;;;;;;70.80;19.87;;;;;;;3.62;100.00;99328.81;5065079;28;20932;-73
2022/01/15 00:30:11;;;;;;;105.70;18.50;;;;;;;3.71;100.00;99325.06;5064701;28;20658;-73
2022/01/15 00:32:39;;;;;;;83.97;19.87;;;;;;;3.85;100.00;99337.44;5066217;28;20587;-74
2022/01/15 00:35:07;;;;;;;90.90;17.80;;;;;;;3.87;100.00;99332.78;5064485;28;20671;-74
2022/01/15 00:37:34;;;;;;;82.77;16.37;;;;;;;3.86;100.00;99332.97;5065898;28;20637;-73
2022/01/15 00:40:02;;;;;;;88.67;18.17;;;;;;;3.65;100.00;99326.59;5065998;28;20617;-74
2022/01/15 00:42:31;;;;;;;69.63;14.23;;;;;;;3.45;100.00;99330.81;5066018;28;20622;-74
2022/01/15 00:45:00;;;;;;;84.13;17.73;;;;;;;3.28;100.00;99334.63;5066044;28;20629;-74
2022/01/15 00:47:31;;;;;;;113.30;19.20;;;;;;;2.90;100.00;99323.34;5066245;28;20621;-74
2022/01/15 00:49:58;;;;;;;132.60;19.40;;;;;;;3.25;100.00;99329.72;5066421;28;20645;-74
2022/01/15 00:52:25;;;;;;;67.57;16.60;;;;;;;3.12;100.00;99333.00;5063682;28;20611;-73
2022/01/15 00:54:51;;;;;;;78.27;17.57;;;;;;;3.05;100.00;99328.63;5064679;28;20610;-73
2022/01/15 00:57:18;;;;;;;64.33;17.00;;;;;;;2.72;100.00;99326.28;5066838;28;20602;-73
2022/01/15 00:59:45;;;;;;;62.20;16.20;;;;;;;2.75;100.00;99317.22;5066847;28;20599;-73
2022/01/15 01:02:13;;;;;;;61.23;13.77;;;;;;;2.92;100.00;99310.78;5067585;28;21342;-73
2022/01/15 01:04:39;;;;;;;79.07;18.40;;;;;;;2.89;100.00;99311.13;5066961;28;20676;-73
2022/01/15 01:07:07;;;;;;;66.53;19.07;;;;;;;2.83;100.00;99311.84;5065956;28;20602;-73
2022/01/15 01:09:48;;;;;;;89.67;18.73;;;;;;;2.99;100.00;99322.25;5065994;28;20634;-73
2022/01/15 01:12:28;;;;;;;61.43;15.77;;;;;;;3.12;100.00;99314.53;5058202;28;20610;-73
2022/01/15 01:20:48;;;;;;;72.97;16.80;;;;;;;3.69;100.00;99298.00;5060194;28;20691;-73
2022/01/15 01:23:15;;;;;;;113.13;20.20;;;;;;;3.85;100.00;99303.06;5052353;28;20653;-74
2022/01/15 01:25:45;;;;;;;104.17;19.83;;;;;;;3.98;100.00;99297.94;5066021;28;20602;-74
2022/01/15 01:28:17;;;;;;;65.40;18.17;;;;;;;4.05;100.00;99301.50;5065414;28;20607;-74
2022/01/15 01:30:49;;;;;;;70.70;19.00;;;;;;;4.07;100.00;99304.75;5065668;28;20609;-74
2022/01/15 01:33:31;;;;;;;76.47;18.00;;;;;;;4.14;100.00;99299.53;5056545;28;20628;-74
2022/01/15 01:36:10;;;;;;;70.90;19.63;;;;;;;3.92;100.00;99293.41;5064745;28;20622;-74
2022/01/15 01:38:42;;;;;;;75.67;19.67;;;;;;;3.64;100.00;99290.66;5064005;28;20610;-73
2022/01/15 01:41:15;;;;;;;80.00;19.20;;;;;;;3.19;100.00;99286.38;5072017;28;20625;-73
2022/01/15 01:43:51;;;;;;;64.33;17.63;;;;;;;2.96;100.00;99293.59;5065201;28;20612;-73
2022/01/15 01:46:31;;;;;;;88.97;18.93;;;;;;;2.90;100.00;99294.31;5055960;28;21490;-74
2022/01/15 01:49:01;;;;;;;79.97;19.43;;;;;;;2.78;100.00;99285.19;5064805;28;20696;-74
2022/01/15 01:51:31;;;;;;;105.90;19.23;;;;;;;2.65;100.00;99285.81;5064551;28;21427;-73
2022/01/15 01:54:00;;;;;;;88.30;20.40;;;;;;;2.61;100.00;99281.06;5065466;28;20618;-74
2022/01/15 01:56:27;;;;;;;91.40;18.67;;;;;;;2.68;100.00;99279.34;5063685;28;20609;-73
2022/01/15 01:58:54;;;;;;;98.50;20.27;;;;;;;2.76;100.00;99276.63;5063748;28;20597;-73
2022/01/15 02:01:22;;;;;;;71.60;19.10;;;;;;;2.77;100.00;99272.16;5064707;28;20613;-73
2022/01/15 02:03:48;;;;;;;68.33;19.53;;;;;;;2.50;100.00;99273.59;5063790;28;20599;-73
2022/01/15 02:06:17;;;;;;;96.43;21.90;;;;;;;2.66;100.00;99273.44;5064763;28;20602;-73
2022/01/15 02:08:45;;;;;;;58.83;16.40;;;;;;;2.95;100.00;99262.09;5064645;28;21029;-73
2022/01/15 02:11:12;;;;;;;71.37;17.53;;;;;;;2.95;100.00;99260.28;5064026;28;20622;-73
2022/01/15 02:13:41;;;;;;;76.90;18.70;;;;;;;3.34;100.00;99264.47;5065505;28;20613;-73
2022/01/15 02:16:08;;;;;;;97.87;21.27;;;;;;;3.20;100.00;99251.09;5065329;28;20648;-74
2022/01/15 02:18:38;;;;;;;85.87;17.20;;;;;;;3.30;100.00;99250.81;5065675;28;20598;-72
2022/01/15 02:23:53;;;;;;;93.50;21.07;;;;;;;3.54;100.00;99257.59;5067186;28;20596;-74
2022/01/15 02:26:23;;;;;;;85.97;19.13;;;;;;;3.37;100.00;99249.06;5065392;28;20595;-74
2022/01/15 02:28:54;;;;;;;66.83;18.97;;;;;;;3.31;100.00;99243.72;5065191;28;20642;-73
2022/01/15 02:31:22;;;;;;;74.73;19.20;;;;;;;3.39;100.00;99230.38;5065926;28;20598;-73
2022/01/15 02:33:52;;;;;;;70.27;18.20;;;;;;;3.72;100.00;99232.41;5065821;28;20602;-73
2022/01/15 02:36:22;;;;;;;72.90;19.47;;;;;;;3.49;100.00;99236.22;5064714;28;20599;-73
2022/01/15 02:38:50;;;;;;;90.73;19.80;;;;;;;3.62;100.00;99239.81;5063851;28;20633;-72
2022/01/15 02:41:27;;;;;;;120.67;22.90;;;;;;;3.45;100.00;99242.84;5064818;28;20633;-73
2022/01/15 02:43:54;;;;;;;72.03;18.80;;;;;;;3.58;100.00;99237.72;5064757;28;20586;-72
2022/01/15 02:46:23;;;;;;;74.03;17.90;;;;;;;3.49;100.00;99238.84;5056178;28;20614;-72
2022/01/15 02:48:52;;;;;;;93.13;20.53;;;;;;;3.41;100.00;99241.56;5066994;28;20653;-74
2022/01/15 02:51:20;;;;;;;81.60;18.77;;;;;;;3.45;100.00;99241.03;5068275;28;20674;-73
2022/01/15 02:53:54;;;;;;;86.07;21.00;;;;;;;3.25;100.00;99224.94;5070214;28;21503;-73
2022/01/15 02:56:22;;;;;;;114.63;20.57;;;;;;;3.30;100.00;99229.69;5060882;28;20689;-74
2022/01/15 02:58:49;;;;;;;74.07;18.90;;;;;;;3.17;100.00;99230.34;5068474;28;20656;-74
2022/01/15 03:01:16;;;;;;;98.10;20.23;;;;;;;3.06;100.00;99230.81;5068797;28;20605;-74
2022/01/15 03:03:43;;;;;;;93.87;21.47;;;;;;;3.04;100.00;99222.22;5068435;28;20625;-74
2022/01/15 03:06:11;;;;;;;108.60;22.07;;;;;;;3.36;100.00;99226.31;5068593;28;20606;-74
2022/01/15 03:08:40;;;;;;;77.87;18.20;;;;;;;3.45;100.00;99227.00;5068366;28;20623;-74
2022/01/15 03:11:07;;;;;;;55.17;17.70;;;;;;;3.32;100.00;99224.19;5067658;28;20595;-74
2022/01/15 03:13:34;;;;;;;62.73;18.33;;;;;;;3.40;100.00;99216.19;5068766;28;20685;-74
2022/01/15 03:16:01;;;;;;;66.17;20.03;;;;;;;3.32;100.00;99218.91;5068702;28;20710;-74
2022/01/15 03:18:28;;;;;;;99.83;21.67;;;;;;;3.56;100.00;99211.50;5068429;28;20587;-74
2022/01/15 03:20:55;;;;;;;78.27;19.20;;;;;;;3.28;100.00;99229.84;5067096;28;20610;-74
2022/01/15 03:23:21;;;;;;;77.40;18.27;;;;;;;3.42;100.00;99220.28;5069194;28;20602;-74
2022/01/15 03:25:49;;;;;;;61.40;18.90;;;;;;;3.37;100.00;99220.03;5068471;28;20658;-73
2022/01/15 03:28:16;;;;;;;96.47;18.57;;;;;;;3.25;100.00;99230.22;5060560;28;20606;-73
2022/01/15 03:30:43;;;;;;;106.40;19.83;;;;;;;3.15;100.00;99218.31;5068113;28;20664;-74
2022/01/15 03:33:10;;;;;;;126.07;24.10;;;;;;;3.26;100.00;99221.31;5067962;28;20636;-74
2022/01/15 03:35:37;;;;;;;94.90;19.73;;;;;;;3.40;100.00;99221.47;5068114;28;20705;-73
2022/01/15 03:38:05;;;;;;;81.70;21.43;;;;;;;3.61;100.00;99216.22;5066891;28;20594;-73
2022/01/15 03:40:33;;;;;;;99.47;20.03;;;;;;;3.61;100.00;99213.59;5068093;28;20594;-74
2022/01/15 03:43:01;;;;;;;106.17;22.20;;;;;;;3.74;100.00;99222.44;5067266;28;20626;-73
2022/01/15 03:45:28;;;;;;;111.60;20.03;;;;;;;3.57;100.00;99220.25;5067488;28;20613;-74
2022/01/15 03:47:56;;;;;;;77.87;19.30;;;;;;;3.54;100.00;99199.47;5067670;28;20606;-74
2022/01/15 03:50:24;;;;;;;120.27;21.90;;;;;;;3.52;100.00;99206.78;5066336;28;20654;-74
2022/01/15 03:52:51;;;;;;;84.60;20.33;;;;;;;3.57;100.00;99214.94;5068358;28;20625;-74
2022/01/15 03:55:18;;;;;;;87.93;20.07;;;;;;;3.51;100.00;99205.13;5066277;28;20613;-74
2022/01/15 03:57:45;;;;;;;99.10;21.67;;;;;;;3.34;100.00;99201.91;5065695;28;20648;-74
2022/01/15 04:00:17;;;;;;;104.80;21.43;;;;;;;3.34;100.00;99198.44;5066069;28;20614;-74
2022/01/15 04:02:44;;;;;;;106.00;22.50;;;;;;;3.56;100.00;99200.13;5067298;28;20599;-73
2022/01/15 04:05:12;;;;;;;125.83;21.93;;;;;;;3.31;100.00;99199.66;5067024;28;20613;-73
2022/01/15 04:07:39;;;;;;;115.90;22.13;;;;;;;3.71;100.00;99198.25;5065898;28;20626;-73
2022/01/15 04:10:07;;;;;;;93.13;21.97;;;;;;;3.84;100.00;99198.38;5066945;28;20656;-73
2022/01/15 04:12:33;;;;;;;86.40;19.77;;;;;;;3.75;100.00;99192.41;5065967;28;20590;-74
2022/01/15 04:15:00;;;;;;;127.10;22.77;;;;;;;3.83;100.00;99199.41;5066880;28;20641;-73
2022/01/15 04:17:28;;;;;;;110.03;20.70;;;;;;;4.02;100.00;99204.06;5066937;28;20607;-73
2022/01/15 04:19:55;;;;;;;79.17;19.87;;;;;;;4.18;100.00;99201.13;5067253;28;21189;-73
2022/01/15 04:22:22;;;;;;;65.07;17.00;;;;;;;4.21;100.00;99200.75;5067747;28;20611;-73
2022/01/15 04:24:49;;;;;;;73.67;19.97;;;;;;;4.28;100.00;99190.22;5070044;28;20601;-74
2022/01/15 04:27:15;;;;;;;91.50;19.57;;;;;;;4.29;100.00;99192.69;5067966;28;20625;-73
2022/01/15 04:29:42;;;;;;;87.83;20.67;;;;;;;4.30;100.00;99196.94;5067769;28;20691;-74
2022/01/15 04:32:09;;;;;;;93.97;20.60;;;;;;;4.32;100.00;99191.50;5067185;28;20599;-73
2022/01/15 04:34:37;;;;;;;105.13;20.60;;;;;;;4.18;100.00;99195.84;5065875;28;20648;-73
2022/01/15 04:37:09;;;;;;;105.93;20.03;;;;;;;4.12;100.00;99196.59;5065666;28;20622;-73
2022/01/15 04:39:36;;;;;;;102.93;20.00;;;;;;;3.98;100.00;99199.31;5065694;28;20680;-73
2022/01/15 04:42:03;;;;;;;89.97;20.77;;;;;;;3.80;100.00;99190.03;5067224;28;20606;-73
2022/01/15 04:44:30;;;;;;;91.17;19.27;;;;;;;3.84;100.00;99192.28;5066701;28;20603;-73
2022/01/15 04:46:56;;;;;;;80.87;19.80;;;;;;;4.00;100.00;99192.84;5066803;28;20618;-73
2022/01/15 04:49:23;;;;;;;69.77;19.40;;;;;;;4.16;100.00;99192.56;5066557;28;20606;-73
2022/01/15 04:51:51;;;;;;;81.80;20.87;;;;;;;4.21;100.00;99200.75;5066859;28;21149;-73
2022/01/15 04:54:18;;;;;;;89.13;20.63;;;;;;;4.32;100.00;99200.25;5068829;28;20613;-73
2022/01/15 04:56:44;;;;;;;83.13;19.23;;;;;;;4.38;100.00;99195.19;5066414;28;20602;-73
2022/01/15 04:59:11;;;;;;;73.33;17.90;;;;;;;4.42;100.00;99201.75;5064995;28;20607;-73
2022/01/15 05:01:38;;;;;;;72.50;18.27;;;;;;;4.43;100.00;99198.06;5065906;28;20582;-73
2022/01/15 05:04:05;;;;;;;80.17;20.43;;;;;;;4.26;100.00;99195.72;5065886;28;20656;-73
2022/01/15 05:06:32;;;;;;;93.80;20.30;;;;;;;4.32;100.00;99192.31;5065726;28;20630;-73
2022/01/15 05:09:05;;;;;;;62.20;17.13;;;;;;;4.37;100.00;99194.38;5065433;28;20606;-73
2022/01/15 05:11:43;;;;;;;93.80;20.27;;;;;;;4.43;100.00;99196.25;5064698;28;20645;-73
2022/01/15 05:14:10;;;;;;;66.03;18.17;;;;;;;4.34;100.00;99190.28;5066227;28;20616;-73
2022/01/15 05:16:37;;;;;;;74.17;17.87;;;;;;;4.26;100.00;99193.06;5066374;28;20594;-73
2022/01/15 05:19:04;;;;;;;82.50;20.10;;;;;;;4.24;100.00;99197.72;5066843;28;20586;-73
2022/01/15 05:21:31;;;;;;;65.30;18.53;;;;;;;4.32;100.00;99192.31;5066878;28;20604;-73
2022/01/15 05:23:57;;;;;;;77.90;19.23;;;;;;;4.33;100.00;99190.50;5068292;28;20650;-73
2022/01/15 05:26:26;;;;;;;112.87;22.40;;;;;;;3.84;100.00;99187.00;5064687;28;20621;-73
2022/01/15 05:28:52;;;;;;;85.57;21.47;;;;;;;3.46;100.00;99191.69;5064580;28;20609;-73
2022/01/15 05:31:19;;;;;;;86.63;20.20;;;;;;;3.70;100.00;99194.78;5065619;28;20715;-73
2022/01/15 05:33:45;;;;;;;89.77;21.30;;;;;;;3.93;100.00;99184.03;5065802;28;20610;-73
2022/01/15 05:36:12;;;;;;;87.27;19.30;;;;;;;4.15;100.00;99183.00;5065450;28;20676;-73
2022/01/15 05:38:39;;;;;;;107.63;21.17;;;;;;;4.23;100.00;99190.81;5065817;28;20590;-73
2022/01/15 05:41:05;;;;;;;69.03;19.70;;;;;;;4.13;100.00;99187.66;5064812;28;20606;-73
2022/01/15 05:43:33;;;;;;;93.90;19.80;;;;;;;3.56;100.00;99197.50;5065686;28;20645;-73
2022/01/15 05:46:00;;;;;;;73.63;19.73;;;;;;;3.13;100.00;99200.00;5065680;28;21224;-73
2022/01/15 05:48:27;;;;;;;124.97;27.50;;;;;;;3.04;100.00;99193.19;5065532;28;20598;-73
2022/01/15 05:50:54;;;;;;;86.60;21.97;;;;;;;2.92;100.00;99194.66;5065214;28;20637;-73
2022/01/15 05:53:20;;;;;;;89.07;23.40;;;;;;;2.94;100.00;99195.28;5067661;28;21122;-73
2022/01/15 05:55:47;;;;;;;100.10;20.33;;;;;;;3.28;100.00;99190.25;5064019;28;20649;-73
2022/01/15 05:58:14;;;;;;;114.23;21.40;;;;;;;3.00;100.00;99189.28;5057203;28;20582;-73
2022/01/15 06:00:42;;;;;;;84.17;18.70;;;;;;;3.32;100.00;99184.59;5065396;28;20706;-73
2022/01/15 06:03:08;;;;;;;118.33;21.97;;;;;;;3.19;100.00;99186.06;5065120;28;20594;-73
2022/01/15 06:05:35;;;;;;;94.17;20.43;;;;;;;3.14;100.00;99187.63;5064141;28;20590;-73
2022/01/15 06:08:01;;;;;;;115.90;20.57;;;;;;;3.15;100.00;99197.22;5065414;28;20613;-73
2022/01/15 06:10:28;;;;;;;105.43;19.30;;;;;;;3.45;100.00;99190.84;5065196;28;20633;-73
2022/01/15 06:12:55;;;;;;;58.13;16.23;;;;;;;3.36;100.00;99189.34;5064284;28;20603;-73
2022/01/15 06:15:21;;;;;;;97.23;17.53;;;;;;;3.36;100.00;99189.34;5064263;28;20680;-73
2022/01/15 06:17:49;;;;;;;99.63;20.43;;;;;;;3.53;100.00;99190.72;5065038;28;20602;-74
2022/01/15 06:20:16;;;;;;;120.20;21.83;;;;;;;3.59;100.00;99194.47;5052992;28;20665;-74
2022/01/15 06:22:43;;;;;;;114.27;22.70;;;;;;;3.62;100.00;99194.09;5064764;28;20610;-74
2022/01/15 06:25:11;;;;;;;95.43;21.83;;;;;;;3.58;100.00;99195.47;5069678;28;20622;-74
2022/01/15 06:27:37;;;;;;;74.10;18.93;;;;;;;3.73;100.00;99181.22;5068637;28;20668;-74
2022/01/15 06:30:05;;;;;;;68.93;17.90;;;;;;;3.92;100.00;99185.03;5068921;28;20661;-73
2022/01/15 06:32:36;;;;;;;99.70;21.80;;;;;;;3.92;100.00;99185.03;5069112;28;20602;-73
2022/01/15 06:35:05;;;;;;;87.83;19.70;;;;;;;3.83;100.00;99188.81;5069127;28;20614;-74
2022/01/15 06:37:31;;;;;;;90.87;20.87;;;;;;;3.84;100.00;99181.72;5067233;28;20598;-74
2022/01/15 06:39:58;;;;;;;92.77;18.67;;;;;;;3.95;100.00;99189.13;5058887;28;20611;-73
2022/01/15 06:42:25;;;;;;;122.53;22.40;;;;;;;4.00;100.00;99182.25;5068209;28;21022;-73
2022/01/15 06:44:52;;;;;;;111.37;21.23;;;;;;;3.87;100.00;99182.13;5068105;28;20602;-73
2022/01/15 06:47:19;;;;;;;95.43;19.20;;;;;;;3.77;100.00;99190.41;5068286;28;20598;-73
2022/01/15 06:49:45;;;;;;;87.27;18.60;;;;;;;3.68;100.00;99185.41;5059123;28;20599;-74
2022/01/15 06:52:13;;;;;;;88.00;19.37;;;;;;;3.73;100.00;99186.50;5067954;28;20622;-73
2022/01/15 06:54:40;;;;;;;90.67;18.17;;;;;;;3.79;100.00;99191.03;5071237;28;20610;-73
2022/01/15 06:57:07;;;;;;;104.27;18.40;;;;;;;3.62;100.00;99180.88;5068965;28;20677;-74
2022/01/15 06:59:34;;;;;;;87.43;19.93;;;;;;;3.73;100.00;99191.78;5068961;28;20598;-74
2022/01/15 07:02:00;;;;;;;78.97;18.87;;;;;;;4.02;100.00;99190.84;5067446;28;20606;-74
2022/01/15 07:04:27;;;;;;;69.80;18.37;;;;;;;4.16;100.00;99187.28;5067583;28;20632;-73
2022/01/15 07:06:53;;;;;;;95.50;19.10;;;;;;;3.90;100.00;99183.59;5067499;28;20602;-73
2022/01/15 07:09:21;;;;;;;97.20;21.10;;;;;;;3.78;100.00;99188.56;5067859;28;20617;-73
2022/01/15 07:11:48;;;;;;;79.60;18.13;;;;;;;4.02;100.00;99185.56;5068164;28;20650;-73
2022/01/15 07:14:15;;;;;;;91.10;20.77;;;;;;;4.10;100.00;99187.22;5047643;28;20688;-73
2022/01/15 07:16:41;;;;;;;105.87;19.10;;;;;;;4.20;100.00;99187.72;5059557;28;21172;-74
2022/01/15 07:19:08;;;;;;;67.80;17.83;;;;;;;3.95;100.00;99189.94;5067551;28;20590;-73
2022/01/15 07:21:35;;;;;;;101.27;21.00;;;;;;;3.92;100.00;99186.88;5068638;28;20637;-73
2022/01/15 07:24:01;;;;;;;96.37;18.60;;;;;;;3.85;100.00;99192.09;5069237;28;20620;-73
2022/01/15 07:26:29;;;;;;;79.43;19.07;;;;;;;3.73;100.00;99190.94;5067183;28;20618;-73
2022/01/15 07:28:57;;;;;;;83.00;19.83;;;;;;;3.55;100.00;99199.31;5068559;28;20664;-74
2022/01/15 07:31:24;;;;;;;89.50;20.80;;;;;;;3.37;100.00;99190.16;5068205;28;20652;-74
2022/01/15 07:33:51;;;;;;;121.20;21.83;;;;;;;3.40;100.00;99189.78;5067576;28;20594;-74
2022/01/15 07:36:17;;;;;;;106.33;20.50;;;;;;;3.69;100.00;99189.69;5068216;28;20598;-74
2022/01/15 07:38:44;;;;;;;97.43;23.60;;;;;;;3.71;100.00;99182.41;5068374;28;20586;-73
2022/01/15 07:41:13;;;;;;;90.87;19.07;;;;;;;3.64;100.00;99187.63;5066835;28;20633;-73
2022/01/15 07:43:42;;;;;;;99.07;21.20;;;;;;;3.80;100.00;99183.91;5067998;28;20614;-74
2022/01/15 07:46:09;;;;;;;103.37;21.07;;;;;;;3.69;100.00;99187.03;5067994;28;20753;-74
2022/01/15 07:48:35;;;;;;;108.57;20.30;;;;;;;3.83;100.00;99188.81;5067648;28;20606;-74
2022/01/15 07:51:02;;;;;;;105.00;21.20;;;;;;;4.07;100.00;99188.44;5068057;28;20652;-74
2022/01/15 07:53:29;;;;;;;85.33;21.57;;;;;;;4.13;100.00;99194.78;5069516;28;20610;-74
2022/01/15 07:55:55;;;;;;;110.67;23.50;;;;;;;4.15;100.00;99183.00;5066446;28;20628;-74
2022/01/15 07:58:22;;;;;;;99.60;23.73;;;;;;;4.28;100.00;99190.22;5066509;28;20625;-74
2022/01/15 08:00:50;;;;;;;117.40;22.53;;;;;;;4.09;100.00;99189.06;5066711;28;20610;-74
2022/01/15 08:03:17;;;;;;;78.87;22.03;;;;;;;4.07;100.00;99187.63;5059841;28;20625;-74
2022/01/15 08:05:44;;;;;;;80.60;20.10;;;;;;;3.96;100.00;99178.34;5066723;28;20690;-74
2022/01/15 08:08:10;;;;;;;118.63;22.17;;;;;;;4.12;100.00;99180.75;5067360;28;20614;-74
2022/01/15 08:10:37;;;;;;;99.20;21.63;;;;;;;4.05;100.00;99179.88;5066039;28;21000;-74
2022/01/15 08:13:03;;;;;;;112.50;23.17;;;;;;;3.94;100.00;99177.72;5067175;28;20598;-74
2022/01/15 08:15:31;;;;;;;72.13;20.17;;;;;;;3.89;100.00;99179.31;5067245;28;20628;-74
2022/01/15 08:17:59;;;;;;;74.30;20.53;;;;;;;3.71;100.00;99177.13;5067075;28;20638;-74
2022/01/15 08:20:26;;;;;;;137.10;23.97;;;;;;;3.54;100.00;99170.44;5067064;28;20613;-74
2022/01/15 08:22:53;;;;;;;113.37;21.73;;;;;;;3.44;100.00;99177.81;5062223;28;20714;-74
2022/01/15 08:25:22;;;;;;;101.07;23.00;;;;;;;3.52;100.00;99172.44;5065612;28;20606;-74
2022/01/15 08:27:49;;;;;;;95.37;21.80;;;;;;;3.31;100.00;99167.97;5066957;28;20603;-73
2022/01/15 08:30:17;;;;;;;138.47;23.70;;;;;;;3.21;100.00;99167.44;5058645;28;20602;-74
2022/01/15 08:32:44;;;;;;;133.07;26.20;;;;;;;2.94;100.00;99168.91;5065618;28;20673;-73
2022/01/15 08:35:13;;;;;;;95.50;19.30;;;;;;;2.80;100.00;99169.75;5066722;28;20602;-74
2022/01/15 08:37:41;;;;;;;137.33;26.77;;;;;;;2.92;100.00;99176.19;5063427;28;20610;-74
2022/01/15 08:40:10;;;;;;;93.73;22.50;;;;;;;3.05;100.00;99176.38;5063508;28;20645;-74
2022/01/15 08:42:37;;;;;;;100.53;22.00;;;;;;;3.05;100.00;99173.72;5064685;28;20615;-74
2022/01/15 08:45:05;;;;;;;90.20;18.70;;;;;;;2.92;100.00;99181.47;5064182;28;20595;-74
2022/01/15 08:47:32;;;;;;;84.10;19.23;;;;;;;2.79;100.00;99181.28;5064832;28;20606;-73
2022/01/15 08:50:00;;;;;;;116.87;21.60;;;;;;;2.97;100.00;99183.56;5064766;28;20618;-74
2022/01/15 08:52:28;;;;;;;80.60;19.53;;;;;;;3.17;100.00;99174.91;5064385;28;20653;-74
2022/01/15 08:54:54;;;;;;;99.17;21.00;;;;;;;3.17;100.00;99174.91;5067857;28;20598;-75
2022/01/15 08:57:21;;;;;;;73.70;18.57;;;;;;;3.07;100.00;99186.72;5066062;28;20637;-74
2022/01/15 08:59:48;;;;;;;87.37;20.23;;;;;;;2.95;100.00;99181.09;5067358;28;20590;-75
2022/01/15 09:02:14;;;;;;;95.00;21.10;;;;;;;3.13;100.00;99168.34;5057717;28;20632;-73
2022/01/15 09:04:41;;;;;;;154.27;25.33;;;;;;;3.07;100.00;99170.91;5066819;28;20598;-74
2022/01/15 09:07:08;;;;;;;73.10;21.60;;;;;;;2.91;100.00;99179.81;5065381;28;20594;-74
2022/01/15 09:09:36;;;;;;;114.43;21.20;;;;;;;2.88;100.00;99174.13;5065065;28;20618;-74
2022/01/15 09:12:03;;;;;;;85.53;19.37;;;;;;;2.82;100.00;99174.81;5065349;28;20676;-74
2022/01/15 09:14:30;;;;;;;100.33;23.23;;;;;;;2.52;100.00;99174.00;5065567;28;20610;-74
2022/01/15 09:16:57;;;;;;;120.93;21.57;;;;;;;2.48;100.00;99184.09;5065687;28;20629;-74
2022/01/15 09:19:24;;;;;;;104.57;19.97;;;;;;;2.66;100.00;99176.66;5065756;28;20633;-74
2022/01/15 09:21:50;;;;;;;103.77;20.30;;;;;;;2.83;100.00;99179.94;5064259;28;20628;-74
2022/01/15 09:24:17;;;;;;;107.87;19.10;;;;;;;2.68;100.00;99179.13;5066255;28;20618;-74
2022/01/15 09:26:48;;;;;;;87.03;20.63;;;;;;;2.63;100.00;99181.50;5065146;28;20598;-74
2022/01/15 09:32:01;;;;;;;130.27;24.57;;;;;;;2.95;100.00;99180.28;5065036;28;20661;-73
2022/01/15 09:34:28;;;;;;;96.13;17.90;;;;;;;2.94;100.00;99187.38;5065153;28;20625;-74
2022/01/15 09:36:55;;;;;;;118.53;21.57;;;;;;;3.12;100.00;99184.38;5065299;28;20606;-74
2022/01/15 09:39:23;;;;;;;113.97;20.80;;;;;;;2.95;100.00;99183.75;5063862;28;20689;-73
2022/01/15 09:41:54;;;;;;;83.73;19.93;;;;;;;2.93;100.00;99183.13;5064111;28;20626;-72
2022/01/15 09:44:22;;;;;;;86.40;20.80;;;;;;;3.04;100.00;99189.75;5064172;28;20681;-73
2022/01/15 09:46:49;;;;;;;78.43;20.00;;;;;;;3.52;100.00;99188.28;5065562;28;20826;-74
2022/01/15 09:49:18;;;;;;;133.03;23.30;;;;;;;3.59;100.00;99194.47;5056381;28;20610;-74
2022/01/15 09:51:45;;;;;;;105.00;22.23;;;;;;;3.36;100.00;99193.78;5064977;28;20672;-74
2022/01/15 09:54:12;;;;;;;100.30;20.70;;;;;;;3.32;100.00;99216.28;5060432;28;20601;-74
2022/01/15 09:56:39;;;;;;;125.00;24.50;;;;;;;3.31;100.00;99207.56;5064345;28;20629;-72
2022/01/15 09:59:07;;;;;;;88.57;21.47;;;;;;;3.45;100.00;99208.53;5064509;28;20607;-75
2022/01/15 10:01:33;;;;;;;93.30;21.10;;;;;;;3.51;100.00;99202.50;5064573;28;20609;-74
2022/01/15 10:04:01;;;;;;;61.83;18.17;;;;;;;3.52;100.00;99206.78;5065099;28;20652;-74
2022/01/15 10:06:28;;;;;;;106.73;22.70;;;;;;;3.64;100.00;99194.72;5063770;28;21013;-73
2022/01/15 10:09:03;;;;;;;80.87;20.13;;;;;;;3.42;100.00;99204.44;5063489;28;20668;-73
2022/01/15 10:11:41;;;;;;;76.50;19.23;;;;;;;3.74;100.00;99197.88;5063547;28;20657;-74
2022/01/15 10:50:57;;;;;;;90.13;24.17;;;;;;;3.88;100.00;99157.34;5202728;27;20804;-66
2022/01/15 10:53:34;;;;;;;75.23;19.77;;;;;;;3.96;100.00;99159.84;5175406;27;20708;-65
2022/01/15 10:56:01;;;;;;;62.00;19.60;;;;;;;4.08;100.00;99141.69;5189778;27;20593;-65
2022/01/15 10:58:28;;;;;;;78.00;20.67;;;;;;;4.09;100.00;99138.81;5189529;27;20595;-66
2022/01/15 11:00:55;;;;;;;72.57;18.27;;;;;;;4.04;100.00;99133.31;5189678;27;20593;-65
2022/01/15 11:03:22;;;;;;;78.00;20.03;;;;;;;3.89;100.00;99129.94;5189282;27;20915;-65
2022/01/15 11:05:52;;;;;;;62.90;18.67;;;;;;;3.76;100.00;99127.16;5189683;27;20627;-66
2022/01/15 11:08:20;;;;;;;72.97;17.97;;;;;;;4.04;100.00;99120.09;5181364;27;20633;-67
2022/01/15 11:10:50;;;;;;;66.43;17.87;;;;;;;4.20;100.00;99119.81;5189434;27;20597;-66
2022/01/15 11:13:18;;;;;;;49.77;15.10;;;;;;;4.25;100.00;99104.16;5180951;27;21460;-65
2022/01/15 11:15:47;;;;;;;71.63;20.27;;;;;;;4.38;100.00;99099.97;5189506;27;20593;-65
2022/01/15 11:18:17;;;;;;;49.33;17.40;;;;;;;4.50;100.00;99101.88;5189405;27;20597;-65
2022/01/15 11:20:47;;;;;;;70.77;17.60;;;;;;;4.56;100.00;99100.28;5189264;27;20637;-67
2022/01/15 11:23:16;;;;;;;70.67;18.73;;;;;;;4.63;100.00;99093.19;5182199;27;20585;-66
2022/01/15 11:25:45;;;;;;;86.60;20.53;;;;;;;4.35;100.00;99093.25;5189270;27;20633;-66
2022/01/15 11:28:13;;;;;;;77.17;19.83;;;;;;;4.35;100.00;99088.78;5188956;27;20593;-65
2022/01/15 11:30:40;;;;;;;80.13;18.27;;;;;;;4.14;100.00;99086.22;5188976;27;20597;-65
2022/01/15 11:33:08;;;;;;;53.00;16.10;;;;;;;4.25;100.00;99090.94;5188925;27;20598;-67
2022/01/15 11:35:40;;;;;;;59.90;17.97;;;;;;;4.28;100.00;99089.75;5188966;27;20605;-64
2022/01/15 11:38:08;;;;;;;76.43;17.10;;;;;;;4.20;100.00;99080.16;5188796;27;20760;-66
2022/01/15 11:40:39;;;;;;;62.87;18.37;;;;;;;4.21;100.00;99079.13;5188676;27;20639;-68
2022/01/15 11:43:39;;;;;;;54.33;17.50;;;;;;;4.47;100.00;99077.63;5188738;27;20609;-65
2022/01/15 11:46:22;;;;;;;72.10;16.67;;;;;;;4.64;100.00;99063.88;5188440;27;20597;-64
2022/01/15 11:48:48;;;;;;;90.43;17.63;;;;;;;4.69;100.00;99060.66;5188567;27;20912;-66
2022/01/15 11:51:28;;;;;;;77.23;18.70;;;;;;;4.99;100.00;99064.63;5180128;27;20618;-65
2022/01/15 11:53:59;;;;;;;76.40;17.73;;;;;;;4.99;100.00;99062.00;5181638;27;20611;-66
2022/01/15 11:56:29;;;;;;;53.67;15.43;;;;;;;5.05;100.00;99052.44;5188663;27;20593;-65
2022/01/15 11:58:57;;;;;;;50.83;16.97;;;;;;;5.02;100.00;99052.81;5188486;27;20605;-65
2022/01/15 12:01:37;;;;;;;60.27;17.07;;;;;;;5.08;100.00;99046.72;5178600;27;20605;-65
2022/01/15 12:04:23;;;;;;;52.83;16.40;;;;;;;4.94;100.00;99048.53;5174692;27;20624;-65
2022/01/15 12:07:20;;;;;;;63.47;17.87;;;;;;;4.60;100.00;99052.09;5174546;27;20596;-65